Time;durP1;ratioP1;P1;durP2;ratioP2;P2;SDS_P1;SDS_P2;PMS_P1;PMS_P2;Temp;Humidity;BMP_temperature;BMP_pressure;BME280_temperature;BME280_humidity;BME280_pressure;Samples;Min_cycle;Max_cycle;Signal;HPM_P1;HPM_P2
2023/03/05 00:01:10;;;;;;;7.00;2.10;;;4.50;99.90;;;;;;7336384;32;20104;-54
2023/03/05 00:05:12;;;;;;;8.45;1.60;;;4.50;99.90;;;;;;7334501;32;20650;-55
2023/03/05 00:09:14;;;;;;;10.70;1.90;;;4.60;99.90;;;;;;7340647;32;20332;-55
2023/03/05 00:13:15;;;;;;;9.48;1.50;;;4.60;99.90;;;;;;7339911;32;20128;-55
2023/03/05 00:17:17;;;;;;;11.40;1.90;;;4.50;99.90;;;;;;7337808;32;20427;-54
2023/03/05 00:21:23;;;;;;;11.20;2.00;;;4.50;99.90;;;;;;7337778;32;20175;-54
2023/03/05 00:25:25;;;;;;;12.23;1.50;;;4.50;99.90;;;;;;7344708;32;20543;-54
2023/03/05 00:29:28;;;;;;;11.63;2.78;;;4.50;99.90;;;;;;7342018;32;20108;-54
2023/03/05 00:33:32;;;;;;;8.48;1.70;;;4.40;99.90;;;;;;7336251;32;20653;-56
2023/03/05 00:37:34;;;;;;;10.75;1.92;;;4.40;99.90;;;;;;7341150;32;20631;-56
2023/03/05 00:41:36;;;;;;;11.27;2.12;;;4.40;99.90;;;;;;7336366;32;20130;-54
2023/03/05 00:45:37;;;;;;;11.65;1.77;;;4.30;99.90;;;;;;7334877;32;20111;-54
2023/03/05 00:49:39;;;;;;;14.75;3.20;;;4.40;99.90;;;;;;7332424;32;20164;-54
2023/03/05 00:53:41;;;;;;;19.02;4.22;;;4.20;99.90;;;;;;7331947;32;20111;-54
2023/03/05 00:57:42;;;;;;;15.32;3.50;;;4.20;99.90;;;;;;7341098;32;20214;-54
2023/03/05 01:01:44;;;;;;;9.85;2.40;;;4.10;99.90;;;;;;7331737;32;20346;-54
2023/03/05 01:05:46;;;;;;;12.77;2.67;;;4.10;99.90;;;;;;7332044;32;20159;-56
2023/03/05 01:09:47;;;;;;;11.00;1.87;;;4.20;99.90;;;;;;7340847;32;20506;-54
2023/03/05 01:13:49;;;;;;;12.20;2.08;;;4.30;99.90;;;;;;7339008;32;20218;-54
2023/03/05 01:17:51;;;;;;;6.50;1.92;;;4.20;99.90;;;;;;7330132;32;20115;-54
2023/03/05 01:21:53;;;;;;;13.20;2.70;;;4.20;99.90;;;;;;7334656;32;20175;-54
2023/03/05 01:25:57;;;;;;;12.77;2.83;;;4.10;99.90;;;;;;7339188;32;20204;-54
2023/03/05 01:29:58;;;;;;;10.38;2.42;;;4.10;99.90;;;;;;7337963;32;20432;-54
2023/03/05 01:34:00;;;;;;;10.52;1.87;;;4.00;99.90;;;;;;7334680;32;20150;-54
2023/03/05 01:38:02;;;;;;;9.25;2.53;;;4.20;99.90;;;;;;7330188;32;20107;-54
2023/03/05 01:42:04;;;;;;;11.35;1.85;;;4.20;99.90;;;;;;7333707;32;20588;-54
2023/03/05 01:46:12;;;;;;;22.62;9.38;;;4.10;99.90;;;;;;7329183;32;20107;-53
2023/03/05 01:50:19;;;;;;;10.98;3.45;;;4.00;99.90;;;;;;7327159;32;20115;-53
2023/03/05 01:54:26;;;;;;;10.65;2.35;;;4.00;99.90;;;;;;7330201;32;20226;-53
2023/03/05 01:58:28;;;;;;;10.68;2.10;;;4.10;99.90;;;;;;7330311;32;20232;-54
2023/03/05 02:02:30;;;;;;;7.60;1.60;;;4.00;99.90;;;;;;7336959;32;20111;-55
2023/03/05 02:06:33;;;;;;;36.17;9.25;;;4.00;99.90;;;;;;7330805;32;20222;-54
2023/03/05 02:10:43;;;;;;;17.77;4.90;;;3.90;99.90;;;;;;7329582;32;20148;-54
2023/03/05 02:14:48;;;;;;;14.77;2.90;;;3.90;99.90;;;;;;7332279;32;20606;-55
2023/03/05 02:18:50;;;;;;;17.35;5.20;;;4.00;99.90;;;;;;7331702;32;20122;-54
2023/03/05 02:22:51;;;;;;;55.70;21.00;;;3.90;99.90;;;;;;7335319;32;20379;-55
2023/03/05 02:26:53;;;;;;;26.77;10.50;;;3.90;99.90;;;;;;7336189;32;20111;-54
2023/03/05 02:30:55;;;;;;;65.62;26.58;;;3.80;99.90;;;;;;7330713;32;20568;-54
2023/03/05 02:34:57;;;;;;;45.33;16.92;;;3.80;99.90;;;;;;7334301;32;20237;-54
2023/03/05 02:38:59;;;;;;;18.77;6.65;;;3.90;99.90;;;;;;7324941;32;20112;-54
2023/03/05 02:43:00;;;;;;;31.48;8.82;;;3.90;99.90;;;;;;7330292;32;20303;-54
2023/03/05 02:47:02;;;;;;;85.15;29.42;;;3.90;99.90;;;;;;7336626;32;20254;-54
2023/03/05 02:51:05;;;;;;;13.07;2.72;;;3.90;99.90;;;;;;7334965;32;20257;-55
2023/03/05 02:55:07;;;;;;;10.77;2.28;;;4.00;99.90;;;;;;7329273;32;20119;-54
2023/03/05 02:59:09;;;;;;;9.30;1.70;;;3.90;99.90;;;;;;7331505;32;20143;-54
2023/03/05 03:03:12;;;;;;;7.93;1.80;;;4.00;99.90;;;;;;7338423;32;20135;-55
2023/03/05 03:07:15;;;;;;;15.18;2.33;;;4.00;99.90;;;;;;7333433;32;20499;-54
2023/03/05 03:11:17;;;;;;;9.35;1.80;;;4.00;99.90;;;;;;7338040;32;20519;-54
2023/03/05 03:15:19;;;;;;;6.50;1.75;;;4.00;99.90;;;;;;7329147;32;20181;-54
2023/03/05 03:19:20;;;;;;;11.77;2.35;;;4.00;99.90;;;;;;7334721;32;20171;-54
2023/03/05 03:23:22;;;;;;;8.80;1.60;;;4.00;99.90;;;;;;7335727;32;20480;-54
2023/03/05 03:27:24;;;;;;;9.68;1.95;;;4.00;99.90;;;;;;7344803;32;20269;-54
2023/03/05 03:31:26;;;;;;;11.35;2.83;;;4.10;99.90;;;;;;7343983;32;20217;-55
2023/03/05 03:35:28;;;;;;;15.50;1.75;;;3.90;99.90;;;;;;7339740;32;20130;-54
2023/03/05 03:39:29;;;;;;;14.20;2.58;;;3.90;99.90;;;;;;7340908;32;20138;-54
2023/03/05 03:43:31;;;;;;;9.27;1.62;;;3.90;99.90;;;;;;7329996;32;20190;-54
2023/03/05 03:47:33;;;;;;;7.43;1.35;;;3.80;99.90;;;;;;7340906;32;20310;-54
2023/03/05 03:51:34;;;;;;;6.78;1.92;;;3.80;99.90;;;;;;7338320;32;20250;-54
2023/03/05 03:55:36;;;;;;;5.35;1.67;;;3.70;99.90;;;;;;7330093;32;20104;-54
2023/03/05 03:59:38;;;;;;;10.45;2.28;;;3.80;99.90;;;;;;7334091;32;20111;-54
2023/03/05 04:03:40;;;;;;;10.48;1.50;;;3.80;99.90;;;;;;7341143;32;20544;-54
2023/03/05 04:07:41;;;;;;;10.35;2.20;;;3.90;99.90;;;;;;7337073;32;20131;-54
2023/03/05 04:11:43;;;;;;;7.85;1.70;;;3.80;99.90;;;;;;7337549;32;20470;-54
2023/03/05 04:15:45;;;;;;;7.25;1.30;;;3.80;99.90;;;;;;7334572;32;20664;-53
2023/03/05 04:19:46;;;;;;;4.93;1.20;;;3.80;99.90;;;;;;7342916;32;20335;-54
2023/03/05 04:23:49;;;;;;;6.75;1.20;;;3.90;99.90;;;;;;7336283;32;20126;-54
2023/03/05 04:27:51;;;;;;;7.90;1.37;;;3.80;99.90;;;;;;7332163;32;20149;-54
2023/03/05 04:31:52;;;;;;;8.23;1.48;;;3.90;99.90;;;;;;7345734;32;20107;-54
2023/03/05 04:35:54;;;;;;;6.37;1.25;;;3.80;99.90;;;;;;7344092;32;20498;-54
2023/03/05 04:39:56;;;;;;;7.18;1.40;;;3.80;99.90;;;;;;7338253;32;20314;-54
2023/03/05 04:43:58;;;;;;;8.27;1.45;;;3.80;99.90;;;;;;7333435;32;20133;-54
2023/03/05 04:48:00;;;;;;;5.47;1.70;;;3.80;99.90;;;;;;7332966;32;20131;-54
2023/03/05 04:52:02;;;;;;;9.38;1.42;;;3.80;99.90;;;;;;7343509;32;20153;-54
2023/03/05 04:56:04;;;;;;;12.70;1.67;;;3.90;99.90;;;;;;7336146;32;20107;-55
2023/03/05 05:00:13;;;;;;;9.98;1.60;;;3.80;99.90;;;;;;7341317;32;20116;-53
2023/03/05 05:04:14;;;;;;;5.95;1.52;;;3.70;99.90;;;;;;7337176;32;20107;-54
2023/03/05 05:08:16;;;;;;;7.32;1.40;;;3.70;99.90;;;;;;7341973;32;20111;-55
2023/03/05 05:12:17;;;;;;;7.20;1.37;;;3.70;99.90;;;;;;7334819;32;20116;-55
2023/03/05 05:16:19;;;;;;;8.85;1.40;;;3.60;99.90;;;;;;7342030;32;20180;-54
2023/03/05 05:20:21;;;;;;;7.07;1.80;;;3.70;99.90;;;;;;7333893;32;20186;-55
2023/03/05 05:24:23;;;;;;;9.02;1.62;;;3.60;99.90;;;;;;7336748;32;20204;-55
2023/03/05 05:28:25;;;;;;;9.30;2.10;;;3.60;99.90;;;;;;7332370;32;20607;-55
2023/03/05 05:32:27;;;;;;;8.38;1.40;;;3.60;99.90;;;;;;7336295;32;20111;-55
2023/03/05 05:36:28;;;;;;;6.55;1.65;;;3.70;99.90;;;;;;7330548;32;20607;-55
2023/03/05 05:40:30;;;;;;;9.98;2.33;;;3.60;99.90;;;;;;7338807;32;20297;-55
2023/03/05 05:44:33;;;;;;;7.53;1.77;;;3.70;99.90;;;;;;7328343;32;20134;-55
2023/03/05 05:48:36;;;;;;;8.70;2.05;;;3.60;99.90;;;;;;7336844;32;20358;-55
2023/03/05 05:52:38;;;;;;;8.57;2.17;;;3.60;99.90;;;;;;7336589;32;20119;-55
2023/03/05 05:56:40;;;;;;;10.32;2.30;;;3.70;99.90;;;;;;7335750;32;20138;-55
2023/03/05 06:00:42;;;;;;;9.35;2.30;;;3.70;99.90;;;;;;7333040;32;20111;-55
2023/03/05 06:04:44;;;;;;;7.95;2.10;;;3.60;99.90;;;;;;7331990;32;20119;-55
2023/03/05 06:08:46;;;;;;;6.95;2.30;;;3.60;99.90;;;;;;7333536;32;20310;-55
2023/03/05 06:12:47;;;;;;;7.15;1.98;;;3.60;99.90;;;;;;7338712;32;20129;-55
2023/03/05 06:16:49;;;;;;;10.82;2.00;;;3.60;99.90;;;;;;7330252;32;20175;-55
2023/03/05 06:20:59;;;;;;;8.48;1.87;;;3.50;99.90;;;;;;7342694;32;20139;-55
2023/03/05 06:25:00;;;;;;;11.80;2.00;;;3.50;99.90;;;;;;7331203;32;20266;-55
2023/03/05 06:29:03;;;;;;;6.65;1.95;;;3.60;99.90;;;;;;7337268;32;20200;-55
2023/03/05 06:33:05;;;;;;;9.40;2.10;;;3.60;99.90;;;;;;7338305;32;20661;-55
2023/03/05 06:37:07;;;;;;;8.52;2.70;;;3.60;99.90;;;;;;7333454;32;20218;-54
2023/03/05 06:41:15;;;;;;;11.15;3.30;;;3.50;99.90;;;;;;7334446;32;20112;-55
2023/03/05 06:45:17;;;;;;;9.35;2.17;;;3.60;99.90;;;;;;7328882;32;20111;-55
2023/03/05 06:49:19;;;;;;;11.43;2.33;;;3.70;99.90;;;;;;7334954;32;20171;-55
2023/03/05 06:53:23;;;;;;;9.43;2.20;;;3.80;99.90;;;;;;7337132;32;20624;-55
2023/03/05 06:57:24;;;;;;;7.05;2.15;;;3.80;99.90;;;;;;7336075;32;20103;-55
2023/03/05 07:01:26;;;;;;;9.00;1.80;;;3.90;99.90;;;;;;7344834;32;20118;-55
2023/03/05 07:05:28;;;;;;;8.80;1.87;;;3.90;99.90;;;;;;7336494;32;20237;-55
2023/03/05 07:09:30;;;;;;;8.93;2.08;;;3.90;99.90;;;;;;7336281;32;20139;-55
2023/03/05 07:13:31;;;;;;;15.10;2.70;;;4.00;99.90;;;;;;7333721;32;20517;-55
2023/03/05 07:17:33;;;;;;;8.38;2.47;;;4.00;99.90;;;;;;7344104;32;20103;-55
2023/03/05 07:21:35;;;;;;;9.07;2.70;;;4.10;99.90;;;;;;7338303;32;20206;-55
2023/03/05 07:25:40;;;;;;;12.95;2.47;;;4.10;99.90;;;;;;7340784;32;20555;-55
2023/03/05 07:29:42;;;;;;;9.07;2.35;;;4.20;99.90;;;;;;7333239;32;20207;-55
2023/03/05 07:33:53;;;;;;;12.93;2.58;;;4.20;99.90;;;;;;7341273;32;20152;-55
2023/03/05 07:37:54;;;;;;;6.32;2.00;;;4.20;99.90;;;;;;7341033;32;20234;-55
2023/03/05 07:41:56;;;;;;;11.18;2.70;;;4.20;99.90;;;;;;7339316;32;20162;-55
2023/03/05 07:45:58;;;;;;;11.20;2.97;;;4.30;99.90;;;;;;7338363;32;20152;-55
2023/03/05 07:50:00;;;;;;;7.65;2.60;;;4.30;99.90;;;;;;7340689;32;20225;-55
2023/03/05 07:54:02;;;;;;;10.40;2.10;;;4.30;99.90;;;;;;7343744;32;20167;-55
2023/03/05 07:58:04;;;;;;;9.93;2.33;;;4.30;99.90;;;;;;7340045;32;20142;-55
2023/03/05 08:02:06;;;;;;;7.25;2.37;;;4.40;99.90;;;;;;7344149;32;20952;-55
2023/03/05 08:06:09;;;;;;;8.25;2.28;;;4.40;99.90;;;;;;7343247;32;20110;-55
2023/03/05 08:10:11;;;;;;;9.23;2.70;;;4.40;99.90;;;;;;7337766;32;20138;-55
2023/03/05 08:14:12;;;;;;;9.18;2.60;;;4.40;99.90;;;;;;7339875;32;20182;-55
2023/03/05 08:18:17;;;;;;;9.88;2.47;;;4.30;99.90;;;;;;7340630;32;20530;-55
2023/03/05 08:22:19;;;;;;;15.35;3.15;;;4.40;99.90;;;;;;7342805;32;20174;-55
2023/03/05 08:26:23;;;;;;;12.75;3.30;;;4.40;99.90;;;;;;7341833;32;20145;-55
2023/03/05 08:30:26;;;;;;;10.35;2.85;;;4.50;99.90;;;;;;7337170;32;20134;-55
2023/03/05 08:34:28;;;;;;;10.85;2.80;;;4.40;99.90;;;;;;7331597;32;20210;-56
2023/03/05 08:38:29;;;;;;;12.50;3.67;;;4.40;99.90;;;;;;7329119;32;20121;-55
2023/03/05 08:42:31;;;;;;;14.35;3.10;;;4.50;99.90;;;;;;7344689;32;20115;-55
2023/03/05 08:46:33;;;;;;;8.63;3.03;;;4.50;99.90;;;;;;7336323;32;20546;-55
2023/03/05 08:50:35;;;;;;;9.65;2.58;;;4.40;99.90;;;;;;7337758;32;20289;-55
2023/03/05 08:54:39;;;;;;;8.77;2.85;;;4.50;99.90;;;;;;7336361;32;20310;-55
2023/03/05 08:58:41;;;;;;;9.70;2.62;;;4.40;99.90;;;;;;7337833;32;20115;-55
2023/03/05 09:02:43;;;;;;;12.63;3.42;;;4.50;99.90;;;;;;7334147;32;20182;-55
2023/03/05 09:06:45;;;;;;;8.20;2.53;;;4.40;99.90;;;;;;7333786;32;20258;-55
2023/03/05 09:10:46;;;;;;;5.57;2.72;;;4.50;99.90;;;;;;7332078;32;20131;-54
2023/03/05 09:14:48;;;;;;;9.52;2.65;;;4.60;99.90;;;;;;7340449;32;20528;-55
2023/03/05 09:18:50;;;;;;;13.55;2.83;;;4.80;99.90;;;;;;7339185;32;20107;-55
2023/03/05 09:22:52;;;;;;;9.15;3.40;;;4.70;99.90;;;;;;7343365;32;20132;-56
2023/03/05 09:26:59;;;;;;;11.82;3.35;;;4.70;99.90;;;;;;7337183;32;20179;-55
2023/03/05 09:31:02;;;;;;;9.40;3.12;;;4.80;99.90;;;;;;7335494;32;20689;-55
2023/03/05 09:35:05;;;;;;;9.25;3.25;;;4.90;99.90;;;;;;7336021;32;20198;-55
2023/03/05 09:39:07;;;;;;;7.35;3.20;;;5.00;99.90;;;;;;7336716;32;20603;-54
2023/03/05 09:43:17;;;;;;;10.70;3.35;;;4.90;99.90;;;;;;7336085;32;20134;-54
2023/03/05 09:47:34;;;;;;;7.97;3.22;;;4.90;99.90;;;;;;7335270;32;20237;-54
2023/03/05 09:51:39;;;;;;;;;;;4.70;99.90;;;;;;7330854;32;20103;-55
2023/03/05 09:55:47;;;;;;;10.10;3.00;;;4.80;99.90;;;;;;7332160;32;20007;-54
2023/03/05 10:00:01;;;;;;;9.85;3.15;;;4.80;99.90;;;;;;7328396;32;20137;-55
2023/03/05 10:04:11;;;;;;;9.80;3.30;;;4.80;99.90;;;;;;7333675;32;20216;-54
2023/03/05 10:08:16;;;;;;;6.68;3.42;;;4.70;99.90;;;;;;7336306;32;20755;-54
2023/03/05 10:12:33;;;;;;;6.30;3.58;;;4.70;99.90;;;;;;7338924;32;20136;-54
2023/03/05 10:16:58;;;;;;;8.35;2.83;;;4.80;99.90;;;;;;7338130;32;20135;-54
2023/03/05 10:21:25;;;;;;;5.62;2.53;;;4.80;99.90;;;;;;7334811;32;20111;-55
2023/03/05 10:25:43;;;;;;;5.60;2.80;;;4.90;99.90;;;;;;7335432;32;20531;-55
2023/03/05 10:29:57;;;;;;;5.35;2.58;;;4.90;99.90;;;;;;7332086;32;20238;-55
2023/03/05 10:34:02;;;;;;;4.60;2.53;;;4.90;99.90;;;;;;7329127;32;20107;-54
2023/03/05 10:38:25;;;;;;;6.97;2.80;;;5.30;99.90;;;;;;7338928;32;20769;-55
2023/03/05 10:42:35;;;;;;;5.43;2.80;;;5.40;99.90;;;;;;7336143;32;20222;-55
2023/03/05 10:46:38;;;;;;;5.35;3.17;;;5.60;99.90;;;;;;7335812;32;20591;-54
2023/03/05 10:50:46;;;;;;;10.10;3.50;;;5.70;99.90;;;;;;7340882;32;20521;-55
2023/03/05 10:54:49;;;;;;;4.93;2.35;;;6.10;99.90;;;;;;7336291;32;20142;-55
2023/03/05 10:58:53;;;;;;;5.82;2.58;;;6.20;99.90;;;;;;7339970;32;20111;-55
2023/03/05 11:02:59;;;;;;;6.97;2.67;;;6.10;99.90;;;;;;7336057;32;20261;-55
2023/03/05 11:07:16;;;;;;;5.37;2.42;;;5.90;99.90;;;;;;7342374;32;20153;-55
2023/03/05 11:11:20;;;;;;;7.32;2.80;;;5.70;99.90;;;;;;7334962;32;20129;-55
2023/03/05 11:15:28;;;;;;;7.12;3.05;;;5.60;99.90;;;;;;7334855;32;20209;-55
2023/03/05 11:19:32;;;;;;;4.85;3.05;;;5.50;99.90;;;;;;7341040;32;20175;-55
2023/03/05 11:23:34;;;;;;;6.35;3.17;;;5.50;99.90;;;;;;7336086;32;20475;-55
2023/03/05 11:27:40;;;;;;;5.90;2.70;;;5.50;99.90;;;;;;7332007;32;20484;-56
2023/03/05 11:31:41;;;;;;;7.68;3.10;;;5.90;99.90;;;;;;7341141;32;20130;-55
2023/03/05 11:35:43;;;;;;;7.60;2.95;;;6.00;99.90;;;;;;7340858;32;20257;-55
2023/03/05 11:39:46;;;;;;;7.05;3.20;;;6.40;99.90;;;;;;7332054;32;20486;-55
2023/03/05 11:43:50;;;;;;;5.72;3.22;;;6.50;99.90;;;;;;7336633;32;20253;-55
2023/03/05 11:47:56;;;;;;;6.12;3.45;;;6.50;99.90;;;;;;7336529;32;20126;-55
2023/03/05 11:52:17;;;;;;;12.63;6.18;;;6.50;99.90;;;;;;7332751;32;20201;-55
2023/03/05 11:56:23;;;;;;;5.35;3.17;;;6.60;99.90;;;;;;7342209;32;20518;-58
2023/03/05 12:00:29;;;;;;;7.40;2.33;;;7.10;99.90;;;;;;7331097;32;20737;-58
2023/03/05 12:04:32;;;;;;;6.30;2.17;;;7.70;99.90;;;;;;7341229;32;20497;-55
2023/03/05 12:08:38;;;;;;;3.65;1.77;;;8.10;99.90;;;;;;7335936;32;20533;-55
2023/03/05 12:12:43;;;;;;;4.05;1.52;;;7.90;99.90;;;;;;7334798;32;20154;-55
2023/03/05 12:16:52;;;;;;;2.87;1.40;;;7.90;99.90;;;;;;7333459;32;20219;-55
2023/03/05 12:21:13;;;;;;;4.78;1.90;;;7.30;99.90;;;;;;7332668;32;20130;-54
2023/03/05 12:25:31;;;;;;;4.90;3.28;;;6.90;99.90;;;;;;7343606;32;20111;-55
2023/03/05 12:29:51;;;;;;;4.20;2.10;;;6.90;99.90;;;;;;7332628;32;20610;-58
2023/03/05 12:33:53;;;;;;;6.12;3.33;;;6.90;99.90;;;;;;7340543;32;20130;-57
2023/03/05 12:37:56;;;;;;;7.25;2.72;;;7.00;99.90;;;;;;7341901;32;20107;-56
2023/03/05 12:41:57;;;;;;;6.05;2.80;;;6.70;99.90;;;;;;7343733;32;20225;-56
2023/03/05 12:46:25;;;;;;;3.78;2.92;;;6.80;99.90;;;;;;7344696;32;20115;-56
2023/03/05 12:50:26;;;;;;;6.87;3.10;;;6.70;99.90;;;;;;7341378;32;20200;-55
2023/03/05 12:54:40;;;;;;;3.47;2.30;;;6.60;99.90;;;;;;7339548;32;20622;-55
2023/03/05 12:58:52;;;;;;;4.50;2.60;;;6.50;99.90;;;;;;7339960;32;20107;-55
2023/03/05 13:02:57;;;;;;;6.22;3.33;;;6.40;99.90;;;;;;7335261;32;20107;-55
2023/03/05 13:07:03;;;;;;;3.67;2.60;;;6.30;99.90;;;;;;7331888;32;20212;-55
2023/03/05 13:11:11;;;;;;;4.82;3.10;;;6.30;99.90;;;;;;7341174;32;20129;-55
2023/03/05 13:15:14;;;;;;;6.37;3.55;;;6.20;99.90;;;;;;7338153;32;20107;-56
2023/03/05 13:19:17;;;;;;;8.73;3.47;;;6.10;99.90;;;;;;7335063;32;20222;-55
2023/03/05 13:23:27;;;;;;;6.87;3.05;;;6.00;99.90;;;;;;7338034;32;20111;-55
2023/03/05 13:27:30;;;;;;;4.55;2.92;;;5.90;99.90;;;;;;7329323;32;20104;-55
2023/03/05 13:31:35;;;;;;;5.87;2.92;;;5.90;99.90;;;;;;7331933;32;20134;-55
2023/03/05 13:35:44;;;;;;;5.72;3.10;;;6.00;99.90;;;;;;7330917;32;20203;-55
2023/03/05 13:39:54;;;;;;;5.10;2.37;;;6.00;99.90;;;;;;7339644;32;20103;-55
2023/03/05 13:43:59;;;;;;;6.20;2.60;;;6.10;99.90;;;;;;7334273;32;20137;-55
2023/03/05 13:48:03;;;;;;;5.25;2.45;;;6.00;99.90;;;;;;7335791;32;20602;-55
2023/03/05 13:52:05;;;;;;;3.95;2.40;;;5.90;99.90;;;;;;7339077;32;20119;-55
2023/03/05 13:56:13;;;;;;;4.60;2.40;;;5.90;99.90;;;;;;7341420;32;20505;-56
2023/03/05 14:00:26;;;;;;;4.12;2.30;;;5.90;99.90;;;;;;7329104;32;20139;-55
2023/03/05 14:04:33;;;;;;;4.43;2.10;;;6.00;99.90;;;;;;7333745;32;20284;-55
2023/03/05 14:08:34;;;;;;;5.43;2.30;;;6.10;99.90;;;;;;7335641;32;20272;-55
2023/03/05 14:12:41;;;;;;;3.42;1.90;;;6.10;99.90;;;;;;7334960;32;20146;-55
2023/03/05 14:16:43;;;;;;;3.87;2.30;;;6.10;99.90;;;;;;7341405;32;20330;-56
2023/03/05 14:21:11;;;;;;;5.18;2.28;;;6.20;99.90;;;;;;7335287;32;20116;-56
2023/03/05 14:25:37;;;;;;;3.50;2.70;;;6.40;99.90;;;;;;7328505;32;20473;-56
2023/03/05 14:29:45;;;;;;;6.62;3.00;;;6.40;99.90;;;;;;7334685;32;20123;-55
2023/03/05 14:33:48;;;;;;;7.60;4.28;;;6.40;99.90;;;;;;7323957;32;20138;-55
2023/03/05 14:37:51;;;;;;;7.60;4.40;;;6.40;99.90;;;;;;7339132;32;20140;-56
2023/03/05 14:41:52;;;;;;;5.90;3.53;;;6.40;99.90;;;;;;7338313;32;20538;-55
2023/03/05 14:45:54;;;;;;;9.48;3.25;;;6.40;99.90;;;;;;7332392;32;20286;-55
2023/03/05 14:49:56;;;;;;;6.65;3.72;;;6.30;99.90;;;;;;7335036;32;20135;-56
2023/03/05 14:53:57;;;;;;;4.32;2.92;;;6.40;99.90;;;;;;7333772;32;20457;-56
2023/03/05 14:58:12;;;;;;;4.93;3.60;;;6.50;99.90;;;;;;7335437;32;20154;-55
2023/03/05 15:02:19;;;;;;;4.45;2.33;;;6.50;99.90;;;;;;7341730;32;20170;-55
2023/03/05 15:06:32;;;;;;;4.35;2.80;;;6.40;99.90;;;;;;7336273;32;20131;-55
2023/03/05 15:10:34;;;;;;;4.50;2.83;;;6.20;99.90;;;;;;7330309;32;20112;-55
2023/03/05 15:14:36;;;;;;;7.12;2.85;;;6.20;99.90;;;;;;7332365;32;20549;-56
2023/03/05 15:18:37;;;;;;;4.95;2.58;;;6.20;99.90;;;;;;7328817;32;20126;-53
2023/03/05 15:22:39;;;;;;;5.15;2.83;;;6.30;99.90;;;;;;7339838;32;20147;-56
2023/03/05 15:26:41;;;;;;;5.18;2.90;;;6.40;99.90;;;;;;7330589;32;20327;-54
2023/03/05 15:30:45;;;;;;;4.47;3.47;;;6.40;99.90;;;;;;7335374;32;20193;-54
2023/03/05 15:34:47;;;;;;;7.00;2.75;;;6.40;99.90;;;;;;7335774;32;20668;-55
2023/03/05 15:38:49;;;;;;;4.15;2.70;;;6.30;99.90;;;;;;7337269;32;20131;-55
2023/03/05 15:42:50;;;;;;;3.45;2.05;;;6.30;99.90;;;;;;7340536;32;20507;-55
2023/03/05 15:46:52;;;;;;;4.55;2.05;;;6.20;99.90;;;;;;7338964;32;20095;-55
2023/03/05 15:50:54;;;;;;;5.82;2.00;;;6.30;99.90;;;;;;7337047;32;20121;-54
2023/03/05 15:54:56;;;;;;;3.62;2.10;;;6.20;99.90;;;;;;7341735;32;20481;-55
2023/03/05 15:58:58;;;;;;;3.95;2.08;;;6.20;99.90;;;;;;7344885;32;20220;-55
2023/03/05 16:02:59;;;;;;;3.62;2.12;;;6.10;99.90;;;;;;7338991;32;20615;-55
2023/03/05 16:07:03;;;;;;;6.78;2.65;;;6.10;99.90;;;;;;7334241;32;20103;-55
2023/03/05 16:11:05;;;;;;;3.92;2.30;;;6.20;99.90;;;;;;7336541;32;20521;-55
2023/03/05 16:15:09;;;;;;;11.23;2.28;;;6.10;99.90;;;;;;7333529;32;20112;-54
2023/03/05 16:19:14;;;;;;;4.95;2.78;;;6.00;99.90;;;;;;7338693;32;20243;-56
2023/03/05 16:23:16;;;;;;;12.50;5.37;;;5.90;99.90;;;;;;7335984;32;20417;-56
2023/03/05 16:27:18;;;;;;;7.47;2.95;;;5.70;99.90;;;;;;7332047;32;20111;-56
2023/03/05 16:31:20;;;;;;;4.95;2.30;;;5.70;99.90;;;;;;7336311;32;20289;-56
2023/03/05 16:35:22;;;;;;;3.58;2.50;;;5.60;99.90;;;;;;7341033;32;20434;-55
2023/03/05 16:39:23;;;;;;;3.35;2.60;;;5.50;99.90;;;;;;7340188;32;20531;-57
2023/03/05 16:43:25;;;;;;;3.67;2.53;;;5.50;99.90;;;;;;7344298;32;20516;-56
2023/03/05 16:47:27;;;;;;;4.87;2.17;;;5.50;99.90;;;;;;7341689;32;20122;-56
2023/03/05 16:51:29;;;;;;;6.32;2.62;;;5.50;99.90;;;;;;7339024;32;20112;-55
2023/03/05 16:55:31;;;;;;;5.05;2.85;;;5.40;99.90;;;;;;7333780;32;20238;-56
2023/03/05 16:59:32;;;;;;;5.25;2.55;;;5.30;99.90;;;;;;7334310;32;20380;-56
2023/03/05 17:03:35;;;;;;;4.40;3.17;;;5.40;99.90;;;;;;7331443;32;20320;-54
2023/03/05 17:07:36;;;;;;;7.20;3.12;;;5.30;99.90;;;;;;7335466;32;20509;-56
2023/03/05 17:11:38;;;;;;;6.78;3.10;;;5.30;99.90;;;;;;7333923;32;20650;-56
2023/03/05 17:15:40;;;;;;;6.28;3.00;;;5.10;99.90;;;;;;7334696;32;20116;-56
2023/03/05 17:19:48;;;;;;;5.87;3.28;;;5.20;99.90;;;;;;7332684;32;20146;-56
2023/03/05 17:23:49;;;;;;;9.23;3.62;;;5.10;99.90;;;;;;7330370;32;20107;-56
2023/03/05 17:27:51;;;;;;;9.60;4.55;;;5.20;99.90;;;;;;7336399;32;20422;-56
2023/03/05 17:31:53;;;;;;;10.15;4.35;;;5.20;99.90;;;;;;7333945;32;20106;-56
2023/03/05 17:35:55;;;;;;;6.93;5.30;;;5.20;99.90;;;;;;7337005;32;20161;-56
2023/03/05 17:39:57;;;;;;;8.95;5.30;;;5.10;99.90;;;;;;7335337;32;20471;-56
2023/03/05 17:43:58;;;;;;;7.60;4.80;;;5.00;99.90;;;;;;7336916;32;20601;-55
2023/03/05 17:48:00;;;;;;;5.85;4.12;;;5.00;99.90;;;;;;7329497;32;20104;-55
2023/03/05 17:52:02;;;;;;;6.93;4.53;;;4.90;99.90;;;;;;7332885;32;20100;-56
2023/03/05 17:56:09;;;;;;;6.07;4.32;;;4.90;99.90;;;;;;7333915;32;20132;-56
2023/03/05 18:00:19;;;;;;;11.88;7.87;;;4.90;99.90;;;;;;7329643;32;20233;-55
2023/03/05 18:04:21;;;;;;;12.10;6.72;;;4.90;99.90;;;;;;7335464;32;20327;-56
2023/03/05 18:08:23;;;;;;;17.75;15.93;;;4.90;99.90;;;;;;7326217;32;20168;-56
2023/03/05 18:12:24;;;;;;;11.85;9.20;;;4.90;99.90;;;;;;7325694;32;20151;-55
2023/03/05 18:16:26;;;;;;;14.13;11.05;;;4.90;99.90;;;;;;7333163;32;20201;-56
2023/03/05 18:20:34;;;;;;;8.95;6.20;;;4.90;99.90;;;;;;7334629;32;20210;-56
2023/03/05 18:24:36;;;;;;;9.60;5.45;;;4.90;99.90;;;;;;7334693;32;20622;-54
2023/03/05 18:28:38;;;;;;;9.38;5.28;;;4.80;99.90;;;;;;7331154;32;20785;-54
2023/03/05 18:32:40;;;;;;;13.85;9.65;;;4.80;99.90;;;;;;7331851;32;20153;-54
2023/03/05 18:36:41;;;;;;;17.27;13.48;;;4.90;99.90;;;;;;7339150;32;20111;-54
2023/03/05 18:40:45;;;;;;;15.90;12.50;;;4.90;99.90;;;;;;7337134;32;20170;-55
2023/03/05 18:44:46;;;;;;;7.93;5.85;;;4.90;99.90;;;;;;7341882;32;20258;-55
2023/03/05 18:48:48;;;;;;;11.57;8.48;;;4.90;99.90;;;;;;7330686;32;20235;-55
2023/03/05 18:52:50;;;;;;;11.95;8.98;;;4.90;99.90;;;;;;7338874;32;20510;-55
2023/03/05 18:56:52;;;;;;;16.77;11.38;;;4.90;99.90;;;;;;7341521;32;20218;-55
2023/03/05 19:00:54;;;;;;;13.18;9.00;;;4.90;99.90;;;;;;7337344;32;20781;-55
2023/03/05 19:04:58;;;;;;;18.75;12.90;;;4.80;99.90;;;;;;7342230;32;20417;-55
2023/03/05 19:09:05;;;;;;;11.68;8.00;;;4.80;99.90;;;;;;7338445;32;20115;-55
2023/03/05 19:13:24;;;;;;;9.77;6.37;;;4.90;99.90;;;;;;7339796;32;20103;-55
2023/03/05 19:17:27;;;;;;;9.23;5.65;;;4.80;99.90;;;;;;7335720;32;20206;-55
2023/03/05 19:21:30;;;;;;;16.77;11.05;;;4.80;99.90;;;;;;7336253;32;20696;-55
2023/03/05 19:25:31;;;;;;;19.17;14.13;;;4.70;99.90;;;;;;7343467;32;20137;-54
2023/03/05 19:29:37;;;;;;;30.92;22.20;;;4.60;99.90;;;;;;7341458;32;20102;-54
2023/03/05 19:33:38;;;;;;;10.27;7.80;;;4.70;99.90;;;;;;7342206;32;20253;-55
2023/03/05 19:37:40;;;;;;;8.98;6.70;;;4.70;99.90;;;;;;7340693;32;20228;-55
2023/03/05 19:41:42;;;;;;;9.45;7.50;;;4.60;99.90;;;;;;7337964;32;20107;-54
2023/03/05 19:45:44;;;;;;;8.60;6.62;;;4.60;99.90;;;;;;7330698;32;20212;-55
2023/03/05 19:49:46;;;;;;;23.65;17.37;;;4.50;99.90;;;;;;7334675;32;20141;-55
2023/03/05 19:53:48;;;;;;;28.40;19.27;;;4.50;99.90;;;;;;7339017;32;20135;-55
2023/03/05 19:57:50;;;;;;;18.20;11.15;;;4.50;99.90;;;;;;7336440;32;20260;-56
2023/03/05 20:01:52;;;;;;;7.62;5.90;;;4.50;99.90;;;;;;7341679;32;20205;-55
2023/03/05 20:05:53;;;;;;;12.73;9.07;;;4.40;99.90;;;;;;7340511;32;20229;-54
2023/03/05 20:09:55;;;;;;;10.00;6.93;;;4.40;99.90;;;;;;7339426;32;20179;-55
2023/03/05 20:13:57;;;;;;;10.50;6.18;;;4.30;99.90;;;;;;7332710;32;20115;-55
2023/03/05 20:17:59;;;;;;;10.00;6.72;;;4.40;99.90;;;;;;7330986;32;20236;-55
2023/03/05 20:22:01;;;;;;;11.07;7.53;;;4.30;99.90;;;;;;7332875;32;20115;-54
2023/03/05 20:26:05;;;;;;;12.73;7.00;;;4.30;99.90;;;;;;7337065;32;20138;-54
2023/03/05 20:30:11;;;;;;;10.27;7.18;;;4.30;99.90;;;;;;7330269;32;20107;-54
2023/03/05 20:34:15;;;;;;;11.02;7.12;;;4.30;99.90;;;;;;7333475;32;20119;-55
2023/03/05 20:38:23;;;;;;;10.82;7.80;;;4.30;99.90;;;;;;7332289;32;20112;-55
2023/03/05 20:42:25;;;;;;;12.88;8.40;;;4.20;99.90;;;;;;7336414;32;20501;-54
2023/03/05 20:46:29;;;;;;;11.73;8.40;;;4.30;99.90;;;;;;7336273;32;20114;-55
2023/03/05 20:50:32;;;;;;;10.60;7.28;;;4.30;99.90;;;;;;7334146;32;20118;-54
2023/03/05 20:54:34;;;;;;;10.85;7.15;;;4.20;99.90;;;;;;7329195;32;20135;-55
2023/03/05 20:58:36;;;;;;;10.07;7.70;;;4.30;99.90;;;;;;7333074;32;20462;-54
2023/03/05 21:02:38;;;;;;;10.05;8.02;;;4.20;99.90;;;;;;7334046;32;20133;-54
2023/03/05 21:06:40;;;;;;;13.85;8.35;;;4.20;99.90;;;;;;7329172;32;20115;-54
2023/03/05 21:10:42;;;;;;;11.40;8.23;;;4.20;99.90;;;;;;7337246;32;20546;-54
2023/03/05 21:14:43;;;;;;;12.10;8.40;;;4.10;99.90;;;;;;7331626;32;20111;-54
2023/03/05 21:18:45;;;;;;;12.55;8.93;;;4.10;99.90;;;;;;7332723;32;20107;-55